sensor_id;sensor_type;location;lat;lon;timestamp;temperature;humidity
21834;DHT22;11079;51.092;3.458;2023-08-01T00:01:31;16.90;99.90
21834;DHT22;11079;51.092;3.458;2023-08-01T00:03:57;16.90;99.90
21834;DHT22;11079;51.092;3.458;2023-08-01T00:06:23;16.80;99.90
21834;DHT22;11079;51.092;3.458;2023-08-01T00:08:50;16.80;99.90
21834;DHT22;11079;51.092;3.458;2023-08-01T00:11:16;16.90;99.90
21834;DHT22;11079;51.092;3.458;2023-08-01T00:13:42;16.90;99.90
21834;DHT22;11079;51.092;3.458;2023-08-01T00:16:08;16.90;99.90
21834;DHT22;11079;51.092;3.458;2023-08-01T00:18:35;16.90;99.90
21834;DHT22;11079;51.092;3.458;2023-08-01T00:21:00;16.80;99.90
21834;DHT22;11079;51.092;3.458;2023-08-01T00:23:26;17.00;99.90
21834;DHT22;11079;51.092;3.458;2023-08-01T00:25:52;16.90;99.90
21834;DHT22;11079;51.092;3.458;2023-08-01T00:28:18;16.90;99.90
21834;DHT22;11079;51.092;3.458;2023-08-01T00:30:44;16.90;99.90
21834;DHT22;11079;51.092;3.458;2023-08-01T00:33:09;16.90;99.90
21834;DHT22;11079;51.092;3.458;2023-08-01T00:35:35;16.90;99.90
21834;DHT22;11079;51.092;3.458;2023-08-01T00:38:01;16.80;99.90
21834;DHT22;11079;51.092;3.458;2023-08-01T00:40:30;16.80;99.90
21834;DHT22;11079;51.092;3.458;2023-08-01T00:42:56;16.80;99.90
21834;DHT22;11079;51.092;3.458;2023-08-01T00:45:23;16.70;99.90
21834;DHT22;11079;51.092;3.458;2023-08-01T00:47:52;16.70;99.90
21834;DHT22;11079;51.092;3.458;2023-08-01T00:50:19;16.60;99.90
21834;DHT22;11079;51.092;3.458;2023-08-01T00:52:46;16.70;99.90
21834;DHT22;11079;51.092;3.458;2023-08-01T00:55:13;16.70;99.90
21834;DHT22;11079;51.092;3.458;2023-08-01T00:57:40;16.70;99.90
21834;DHT22;11079;51.092;3.458;2023-08-01T01:00:06;16.80;99.90
21834;DHT22;11079;51.092;3.458;2023-08-01T01:02:32;16.80;99.90
21834;DHT22;11079;51.092;3.458;2023-08-01T01:04:57;16.80;99.90
21834;DHT22;11079;51.092;3.458;2023-08-01T01:07:23;16.80;99.90
21834;DHT22;11079;51.092;3.458;2023-08-01T01:09:50;16.90;99.90
21834;DHT22;11079;51.092;3.458;2023-08-01T01:12:16;16.80;99.90
21834;DHT22;11079;51.092;3.458;2023-08-01T01:14:41;16.80;99.90
21834;DHT22;11079;51.092;3.458;2023-08-01T01:17:08;16.80;99.90
21834;DHT22;11079;51.092;3.458;2023-08-01T01:19:34;16.60;99.90
21834;DHT22;11079;51.092;3.458;2023-08-01T01:21:59;16.50;99.90
21834;DHT22;11079;51.092;3.458;2023-08-01T01:24:27;16.50;99.90
21834;DHT22;11079;51.092;3.458;2023-08-01T01:26:54;16.40;99.90
21834;DHT22;11079;51.092;3.458;2023-08-01T01:29:21;16.60;99.90
21834;DHT22;11079;51.092;3.458;2023-08-01T01:31:48;16.60;99.90
21834;DHT22;11079;51.092;3.458;2023-08-01T01:34:14;16.50;99.90
21834;DHT22;11079;51.092;3.458;2023-08-01T01:36:39;16.60;99.90
21834;DHT22;11079;51.092;3.458;2023-08-01T01:39:05;16.60;99.90
21834;DHT22;11079;51.092;3.458;2023-08-01T01:41:31;16.60;99.90
21834;DHT22;11079;51.092;3.458;2023-08-01T01:43:56;16.60;99.90
21834;DHT22;11079;51.092;3.458;2023-08-01T01:46:22;16.60;99.90
21834;DHT22;11079;51.092;3.458;2023-08-01T01:48:47;16.50;99.90
21834;DHT22;11079;51.092;3.458;2023-08-01T01:51:13;16.50;99.90
21834;DHT22;11079;51.092;3.458;2023-08-01T01:53:39;16.50;99.90
21834;DHT22;11079;51.092;3.458;2023-08-01T01:56:04;16.60;99.90
21834;DHT22;11079;51.092;3.458;2023-08-01T01:58:30;16.60;99.90
21834;DHT22;11079;51.092;3.458;2023-08-01T02:00:56;16.70;99.90
21834;DHT22;11079;51.092;3.458;2023-08-01T02:03:23;16.70;99.90
21834;DHT22;11079;51.092;3.458;2023-08-01T02:05:48;16.70;99.90
21834;DHT22;11079;51.092;3.458;2023-08-01T02:08:14;16.70;99.90
21834;DHT22;11079;51.092;3.458;2023-08-01T02:10:39;16.80;99.90
21834;DHT22;11079;51.092;3.458;2023-08-01T02:13:05;16.90;99.90
21834;DHT22;11079;51.092;3.458;2023-08-01T02:15:31;17.00;99.90
21834;DHT22;11079;51.092;3.458;2023-08-01T02:17:56;17.00;99.90
21834;DHT22;11079;51.092;3.458;2023-08-01T02:20:22;17.10;99.90
21834;DHT22;11079;51.092;3.458;2023-08-01T02:22:48;17.00;99.90
21834;DHT22;11079;51.092;3.458;2023-08-01T02:25:13;17.00;99.90
21834;DHT22;11079;51.092;3.458;2023-08-01T02:27:39;17.00;99.90
21834;DHT22;11079;51.092;3.458;2023-08-01T02:30:05;17.00;99.90
21834;DHT22;11079;51.092;3.458;2023-08-01T02:32:31;17.00;99.90
21834;DHT22;11079;51.092;3.458;2023-08-01T02:34:57;17.10;99.90
21834;DHT22;11079;51.092;3.458;2023-08-01T02:37:22;17.00;99.90
21834;DHT22;11079;51.092;3.458;2023-08-01T02:39:48;17.00;99.90
21834;DHT22;11079;51.092;3.458;2023-08-01T02:42:13;17.00;99.90
21834;DHT22;11079;51.092;3.458;2023-08-01T02:44:39;17.10;99.90
21834;DHT22;11079;51.092;3.458;2023-08-01T02:47:05;17.10;99.90
21834;DHT22;11079;51.092;3.458;2023-08-01T02:49:31;16.90;99.90
21834;DHT22;11079;51.092;3.458;2023-08-01T02:51:57;16.80;99.90
21834;DHT22;11079;51.092;3.458;2023-08-01T02:54:24;16.80;99.90
21834;DHT22;11079;51.092;3.458;2023-08-01T02:56:50;16.70;99.90
21834;DHT22;11079;51.092;3.458;2023-08-01T02:59:16;16.60;99.90
21834;DHT22;11079;51.092;3.458;2023-08-01T03:01:44;16.60;99.90
21834;DHT22;11079;51.092;3.458;2023-08-01T03:04:09;16.60;99.90
21834;DHT22;11079;51.092;3.458;2023-08-01T03:06:37;16.70;99.90
21834;DHT22;11079;51.092;3.458;2023-08-01T03:09:04;16.80;99.90
21834;DHT22;11079;51.092;3.458;2023-08-01T03:11:35;16.90;99.90
21834;DHT22;11079;51.092;3.458;2023-08-01T03:14:00;16.90;99.90
21834;DHT22;11079;51.092;3.458;2023-08-01T03:16:26;16.80;99.90
21834;DHT22;11079;51.092;3.458;2023-08-01T03:18:52;16.80;99.90
21834;DHT22;11079;51.092;3.458;2023-08-01T03:21:17;16.70;99.90
21834;DHT22;11079;51.092;3.458;2023-08-01T03:23:43;16.70;99.90
21834;DHT22;11079;51.092;3.458;2023-08-01T03:26:09;16.70;99.90
21834;DHT22;11079;51.092;3.458;2023-08-01T03:28:35;16.70;99.90
21834;DHT22;11079;51.092;3.458;2023-08-01T03:31:01;16.70;99.90
21834;DHT22;11079;51.092;3.458;2023-08-01T03:33:26;16.80;99.90
21834;DHT22;11079;51.092;3.458;2023-08-01T03:35:52;16.80;99.90
21834;DHT22;11079;51.092;3.458;2023-08-01T03:38:18;16.80;99.90
21834;DHT22;11079;51.092;3.458;2023-08-01T03:40:43;16.80;99.90
21834;DHT22;11079;51.092;3.458;2023-08-01T03:43:09;16.80;99.90
21834;DHT22;11079;51.092;3.458;2023-08-01T03:45:35;16.70;99.90
21834;DHT22;11079;51.092;3.458;2023-08-01T03:48:01;16.80;99.90
21834;DHT22;11079;51.092;3.458;2023-08-01T03:50:27;16.70;99.90
21834;DHT22;11079;51.092;3.458;2023-08-01T03:52:52;16.60;99.90
21834;DHT22;11079;51.092;3.458;2023-08-01T03:55:18;16.50;99.90
21834;DHT22;11079;51.092;3.458;2023-08-01T03:57:44;16.70;99.90
21834;DHT22;11079;51.092;3.458;2023-08-01T04:00:10;16.70;99.90
21834;DHT22;11079;51.092;3.458;2023-08-01T04:02:42;16.80;99.90
21834;DHT22;11079;51.092;3.458;2023-08-01T04:05:08;16.80;99.90
21834;DHT22;11079;51.092;3.458;2023-08-01T04:07:35;16.90;99.90
21834;DHT22;11079;51.092;3.458;2023-08-01T04:10:02;16.90;99.90
21834;DHT22;11079;51.092;3.458;2023-08-01T04:12:28;16.90;99.90
21834;DHT22;11079;51.092;3.458;2023-08-01T04:14:54;16.80;99.90
21834;DHT22;11079;51.092;3.458;2023-08-01T04:17:19;16.80;99.90
21834;DHT22;11079;51.092;3.458;2023-08-01T04:19:45;16.80;99.90
21834;DHT22;11079;51.092;3.458;2023-08-01T04:22:10;16.90;99.90
21834;DHT22;11079;51.092;3.458;2023-08-01T04:24:36;16.90;99.90
21834;DHT22;11079;51.092;3.458;2023-08-01T04:27:02;16.80;99.90
21834;DHT22;11079;51.092;3.458;2023-08-01T04:29:27;16.90;99.90
21834;DHT22;11079;51.092;3.458;2023-08-01T04:31:53;16.90;99.90
21834;DHT22;11079;51.092;3.458;2023-08-01T04:34:19;16.90;99.90
21834;DHT22;11079;51.092;3.458;2023-08-01T04:36:44;17.10;99.90
21834;DHT22;11079;51.092;3.458;2023-08-01T04:39:10;17.10;99.90
21834;DHT22;11079;51.092;3.458;2023-08-01T04:41:35;17.10;99.90
21834;DHT22;11079;51.092;3.458;2023-08-01T04:44:01;17.10;99.90
21834;DHT22;11079;51.092;3.458;2023-08-01T04:46:27;17.10;99.90
21834;DHT22;11079;51.092;3.458;2023-08-01T04:48:52;17.00;99.90
21834;DHT22;11079;51.092;3.458;2023-08-01T04:51:18;17.10;99.90
21834;DHT22;11079;51.092;3.458;2023-08-01T04:53:43;17.10;99.90
21834;DHT22;11079;51.092;3.458;2023-08-01T04:56:09;17.20;99.90
21834;DHT22;11079;51.092;3.458;2023-08-01T04:58:35;17.30;99.90
21834;DHT22;11079;51.092;3.458;2023-08-01T05:01:00;17.30;99.90
21834;DHT22;11079;51.092;3.458;2023-08-01T05:03:26;17.30;99.90
21834;DHT22;11079;51.092;3.458;2023-08-01T05:05:51;17.30;99.90
21834;DHT22;11079;51.092;3.458;2023-08-01T05:08:17;17.30;99.90
21834;DHT22;11079;51.092;3.458;2023-08-01T05:10:43;17.20;99.90
21834;DHT22;11079;51.092;3.458;2023-08-01T05:13:08;17.20;99.90
21834;DHT22;11079;51.092;3.458;2023-08-01T05:15:34;17.20;99.90
21834;DHT22;11079;51.092;3.458;2023-08-01T05:17:59;17.10;99.90
21834;DHT22;11079;51.092;3.458;2023-08-01T05:20:25;17.10;99.90
21834;DHT22;11079;51.092;3.458;2023-08-01T05:22:59;17.00;99.90
21834;DHT22;11079;51.092;3.458;2023-08-01T05:25:24;17.00;99.90
21834;DHT22;11079;51.092;3.458;2023-08-01T05:27:50;17.10;99.90
21834;DHT22;11079;51.092;3.458;2023-08-01T05:30:16;17.20;99.90
21834;DHT22;11079;51.092;3.458;2023-08-01T05:32:42;17.30;99.90
21834;DHT22;11079;51.092;3.458;2023-08-01T05:35:09;17.30;99.90
21834;DHT22;11079;51.092;3.458;2023-08-01T05:37:35;17.30;99.90
21834;DHT22;11079;51.092;3.458;2023-08-01T05:40:04;17.20;99.90
21834;DHT22;11079;51.092;3.458;2023-08-01T05:42:30;17.30;99.90
21834;DHT22;11079;51.092;3.458;2023-08-01T05:44:55;17.40;99.90
21834;DHT22;11079;51.092;3.458;2023-08-01T05:47:21;17.30;99.90
21834;DHT22;11079;51.092;3.458;2023-08-01T05:49:48;17.30;99.90
21834;DHT22;11079;51.092;3.458;2023-08-01T05:52:14;17.40;99.90
21834;DHT22;11079;51.092;3.458;2023-08-01T05:54:40;17.50;99.90
21834;DHT22;11079;51.092;3.458;2023-08-01T05:57:07;17.60;99.90
21834;DHT22;11079;51.092;3.458;2023-08-01T05:59:32;17.70;99.90
21834;DHT22;11079;51.092;3.458;2023-08-01T06:01:58;18.40;99.90
21834;DHT22;11079;51.092;3.458;2023-08-01T06:04:24;19.50;99.90
21834;DHT22;11079;51.092;3.458;2023-08-01T06:06:49;20.20;99.90
21834;DHT22;11079;51.092;3.458;2023-08-01T06:09:15;20.10;99.90
21834;DHT22;11079;51.092;3.458;2023-08-01T06:11:41;19.80;99.90
21834;DHT22;11079;51.092;3.458;2023-08-01T06:14:07;19.40;99.90
21834;DHT22;11079;51.092;3.458;2023-08-01T06:16:32;19.10;99.90
21834;DHT22;11079;51.092;3.458;2023-08-01T06:18:59;18.70;99.90
21834;DHT22;11079;51.092;3.458;2023-08-01T06:21:25;18.60;99.90
21834;DHT22;11079;51.092;3.458;2023-08-01T06:23:51;18.70;99.90
21834;DHT22;11079;51.092;3.458;2023-08-01T06:26:16;18.80;99.90
21834;DHT22;11079;51.092;3.458;2023-08-01T06:28:42;18.80;99.90
21834;DHT22;11079;51.092;3.458;2023-08-01T06:31:08;19.30;99.90
21834;DHT22;11079;51.092;3.458;2023-08-01T06:33:33;19.80;99.90
21834;DHT22;11079;51.092;3.458;2023-08-01T06:35:59;20.40;99.90
21834;DHT22;11079;51.092;3.458;2023-08-01T06:38:25;21.20;99.90
21834;DHT22;11079;51.092;3.458;2023-08-01T06:40:50;20.90;99.90
21834;DHT22;11079;51.092;3.458;2023-08-01T06:43:16;20.50;99.90
21834;DHT22;11079;51.092;3.458;2023-08-01T06:45:42;20.30;99.90
21834;DHT22;11079;51.092;3.458;2023-08-01T06:48:07;20.20;99.90
21834;DHT22;11079;51.092;3.458;2023-08-01T06:50:34;20.10;99.90
21834;DHT22;11079;51.092;3.458;2023-08-01T06:53:01;20.40;99.90
21834;DHT22;11079;51.092;3.458;2023-08-01T06:55:27;20.40;99.90
21834;DHT22;11079;51.092;3.458;2023-08-01T06:57:52;20.80;99.90
21834;DHT22;11079;51.092;3.458;2023-08-01T07:00:18;21.10;99.90
21834;DHT22;11079;51.092;3.458;2023-08-01T07:02:44;21.00;99.90
21834;DHT22;11079;51.092;3.458;2023-08-01T07:05:10;20.90;99.90
21834;DHT22;11079;51.092;3.458;2023-08-01T07:07:36;21.20;99.90
21834;DHT22;11079;51.092;3.458;2023-08-01T07:10:02;22.00;99.90
21834;DHT22;11079;51.092;3.458;2023-08-01T07:12:28;23.30;99.90
21834;DHT22;11079;51.092;3.458;2023-08-01T07:14:53;23.40;99.90
21834;DHT22;11079;51.092;3.458;2023-08-01T07:17:19;22.80;99.90
21834;DHT22;11079;51.092;3.458;2023-08-01T07:19:45;23.40;99.90
21834;DHT22;11079;51.092;3.458;2023-08-01T07:22:11;23.50;99.90
21834;DHT22;11079;51.092;3.458;2023-08-01T07:24:36;23.40;99.90
21834;DHT22;11079;51.092;3.458;2023-08-01T07:27:02;22.70;99.90
21834;DHT22;11079;51.092;3.458;2023-08-01T07:29:28;22.80;99.90
21834;DHT22;11079;51.092;3.458;2023-08-01T07:31:54;23.40;99.90
21834;DHT22;11079;51.092;3.458;2023-08-01T07:34:19;23.60;99.90
21834;DHT22;11079;51.092;3.458;2023-08-01T07:36:49;23.40;99.90
21834;DHT22;11079;51.092;3.458;2023-08-01T07:39:15;23.30;99.90
21834;DHT22;11079;51.092;3.458;2023-08-01T07:41:41;22.60;99.90
21834;DHT22;11079;51.092;3.458;2023-08-01T07:44:07;22.30;99.90
21834;DHT22;11079;51.092;3.458;2023-08-01T07:46:33;22.00;99.90
21834;DHT22;11079;51.092;3.458;2023-08-01T07:48:59;21.60;99.90
21834;DHT22;11079;51.092;3.458;2023-08-01T07:51:25;21.60;99.90
21834;DHT22;11079;51.092;3.458;2023-08-01T07:53:56;21.30;99.90
21834;DHT22;11079;51.092;3.458;2023-08-01T07:56:22;21.70;99.90
21834;DHT22;11079;51.092;3.458;2023-08-01T07:58:48;21.70;99.90
21834;DHT22;11079;51.092;3.458;2023-08-01T08:01:13;21.90;99.90
21834;DHT22;11079;51.092;3.458;2023-08-01T08:03:39;22.90;99.90
21834;DHT22;11079;51.092;3.458;2023-08-01T08:06:04;23.40;99.90
21834;DHT22;11079;51.092;3.458;2023-08-01T08:08:31;24.60;99.90
21834;DHT22;11079;51.092;3.458;2023-08-01T08:10:59;26.40;99.90
21834;DHT22;11079;51.092;3.458;2023-08-01T08:13:25;25.70;99.90
21834;DHT22;11079;51.092;3.458;2023-08-01T08:15:51;25.00;99.90
21834;DHT22;11079;51.092;3.458;2023-08-01T08:18:16;23.80;99.90
21834;DHT22;11079;51.092;3.458;2023-08-01T08:20:44;23.30;99.90
21834;DHT22;11079;51.092;3.458;2023-08-01T08:23:11;23.10;99.90
21834;DHT22;11079;51.092;3.458;2023-08-01T08:25:39;24.60;99.90
21834;DHT22;11079;51.092;3.458;2023-08-01T08:28:05;25.60;99.90
21834;DHT22;11079;51.092;3.458;2023-08-01T08:30:31;24.80;99.90
21834;DHT22;11079;51.092;3.458;2023-08-01T08:32:57;23.40;99.90
21834;DHT22;11079;51.092;3.458;2023-08-01T08:35:24;23.60;99.90
21834;DHT22;11079;51.092;3.458;2023-08-01T08:37:49;25.10;99.90
21834;DHT22;11079;51.092;3.458;2023-08-01T08:40:15;27.50;99.90
21834;DHT22;11079;51.092;3.458;2023-08-01T08:42:42;26.50;99.90
21834;DHT22;11079;51.092;3.458;2023-08-01T08:45:08;27.70;99.90
21834;DHT22;11079;51.092;3.458;2023-08-01T08:47:36;28.10;99.90
21834;DHT22;11079;51.092;3.458;2023-08-01T08:50:05;28.00;99.90
21834;DHT22;11079;51.092;3.458;2023-08-01T08:52:30;28.50;99.90
21834;DHT22;11079;51.092;3.458;2023-08-01T08:54:56;28.50;99.90
21834;DHT22;11079;51.092;3.458;2023-08-01T08:57:23;27.50;99.90
21834;DHT22;11079;51.092;3.458;2023-08-01T08:59:50;27.10;99.90
21834;DHT22;11079;51.092;3.458;2023-08-01T09:02:17;26.70;99.90
21834;DHT22;11079;51.092;3.458;2023-08-01T09:04:43;26.00;99.90
21834;DHT22;11079;51.092;3.458;2023-08-01T09:07:10;25.50;99.90
21834;DHT22;11079;51.092;3.458;2023-08-01T09:09:38;26.20;99.90
21834;DHT22;11079;51.092;3.458;2023-08-01T09:12:04;26.10;99.90
21834;DHT22;11079;51.092;3.458;2023-08-01T09:14:30;26.10;99.90
21834;DHT22;11079;51.092;3.458;2023-08-01T09:17:08;26.00;99.90
21834;DHT22;11079;51.092;3.458;2023-08-01T09:19:34;26.90;99.90
21834;DHT22;11079;51.092;3.458;2023-08-01T09:22:01;26.60;99.90
21834;DHT22;11079;51.092;3.458;2023-08-01T09:24:27;26.20;99.90
21834;DHT22;11079;51.092;3.458;2023-08-01T09:26:52;25.10;99.90
21834;DHT22;11079;51.092;3.458;2023-08-01T09:29:26;24.80;99.90
21834;DHT22;11079;51.092;3.458;2023-08-01T09:31:52;24.80;99.90
21834;DHT22;11079;51.092;3.458;2023-08-01T09:34:22;25.00;99.90
21834;DHT22;11079;51.092;3.458;2023-08-01T09:36:48;25.00;99.90
21834;DHT22;11079;51.092;3.458;2023-08-01T09:39:19;24.90;99.90
21834;DHT22;11079;51.092;3.458;2023-08-01T09:41:45;24.60;99.90
21834;DHT22;11079;51.092;3.458;2023-08-01T09:44:13;24.50;99.90
21834;DHT22;11079;51.092;3.458;2023-08-01T09:46:40;24.80;99.90
21834;DHT22;11079;51.092;3.458;2023-08-01T09:49:10;24.70;99.90
21834;DHT22;11079;51.092;3.458;2023-08-01T09:51:49;24.80;99.90
21834;DHT22;11079;51.092;3.458;2023-08-01T09:54:16;24.80;99.90
21834;DHT22;11079;51.092;3.458;2023-08-01T09:56:47;25.10;99.90
21834;DHT22;11079;51.092;3.458;2023-08-01T09:59:21;25.30;99.90
21834;DHT22;11079;51.092;3.458;2023-08-01T10:01:51;26.50;99.90
21834;DHT22;11079;51.092;3.458;2023-08-01T10:04:52;27.00;99.90
21834;DHT22;11079;51.092;3.458;2023-08-01T10:07:11;25.50;99.90
21834;DHT22;11079;51.092;3.458;2023-08-01T10:09:40;25.40;99.90
21834;DHT22;11079;51.092;3.458;2023-08-01T10:12:06;26.30;99.90
21834;DHT22;11079;51.092;3.458;2023-08-01T10:14:33;27.50;99.90
21834;DHT22;11079;51.092;3.458;2023-08-01T10:16:59;28.70;99.90
21834;DHT22;11079;51.092;3.458;2023-08-01T10:19:26;28.80;99.90
21834;DHT22;11079;51.092;3.458;2023-08-01T10:21:52;29.10;99.90
21834;DHT22;11079;51.092;3.458;2023-08-01T10:24:19;28.80;99.90
21834;DHT22;11079;51.092;3.458;2023-08-01T10:26:45;27.90;99.90
21834;DHT22;11079;51.092;3.458;2023-08-01T10:29:14;27.20;99.90
21834;DHT22;11079;51.092;3.458;2023-08-01T10:31:50;25.90;99.90
21834;DHT22;11079;51.092;3.458;2023-08-01T10:34:16;25.00;99.90
21834;DHT22;11079;51.092;3.458;2023-08-01T10:36:56;23.90;99.90
21834;DHT22;11079;51.092;3.458;2023-08-01T10:39:23;23.50;99.90
21834;DHT22;11079;51.092;3.458;2023-08-01T10:42:05;23.20;99.90
21834;DHT22;11079;51.092;3.458;2023-08-01T10:44:32;22.80;99.90
21834;DHT22;11079;51.092;3.458;2023-08-01T10:47:01;23.30;99.90
21834;DHT22;11079;51.092;3.458;2023-08-01T10:52:21;27.40;99.90
21834;DHT22;11079;51.092;3.458;2023-08-01T10:55:00;27.80;99.90
21834;DHT22;11079;51.092;3.458;2023-08-01T10:57:30;26.30;99.90
21834;DHT22;11079;51.092;3.458;2023-08-01T10:59:57;26.30;99.90
21834;DHT22;11079;51.092;3.458;2023-08-01T11:02:24;27.50;99.90
21834;DHT22;11079;51.092;3.458;2023-08-01T11:05:04;27.80;99.90
21834;DHT22;11079;51.092;3.458;2023-08-01T11:07:31;28.40;99.90
21834;DHT22;11079;51.092;3.458;2023-08-01T11:12:29;29.70;99.90
21834;DHT22;11079;51.092;3.458;2023-08-01T11:15:02;28.10;99.90
21834;DHT22;11079;51.092;3.458;2023-08-01T11:17:28;26.50;99.90
21834;DHT22;11079;51.092;3.458;2023-08-01T11:20:04;26.60;99.90
21834;DHT22;11079;51.092;3.458;2023-08-01T11:22:31;26.30;99.90
21834;DHT22;11079;51.092;3.458;2023-08-01T11:24:57;25.50;99.90
21834;DHT22;11079;51.092;3.458;2023-08-01T11:27:22;25.00;99.90
21834;DHT22;11079;51.092;3.458;2023-08-01T11:29:48;25.40;99.90
21834;DHT22;11079;51.092;3.458;2023-08-01T11:32:13;26.10;99.90
21834;DHT22;11079;51.092;3.458;2023-08-01T11:34:40;27.50;99.90
21834;DHT22;11079;51.092;3.458;2023-08-01T11:37:10;28.20;99.90
21834;DHT22;11079;51.092;3.458;2023-08-01T11:39:37;28.10;99.90
21834;DHT22;11079;51.092;3.458;2023-08-01T11:42:02;27.30;99.90
21834;DHT22;11079;51.092;3.458;2023-08-01T11:44:28;25.70;99.90
21834;DHT22;11079;51.092;3.458;2023-08-01T11:46:55;25.30;99.90
21834;DHT22;11079;51.092;3.458;2023-08-01T11:49:21;24.70;99.90
21834;DHT22;11079;51.092;3.458;2023-08-01T11:51:46;23.90;99.90
21834;DHT22;11079;51.092;3.458;2023-08-01T11:54:13;23.60;99.90
21834;DHT22;11079;51.092;3.458;2023-08-01T11:56:42;23.30;99.90
21834;DHT22;11079;51.092;3.458;2023-08-01T12:01:41;23.70;99.90
21834;DHT22;11079;51.092;3.458;2023-08-01T12:04:07;23.60;99.90
21834;DHT22;11079;51.092;3.458;2023-08-01T12:06:34;23.60;99.90
21834;DHT22;11079;51.092;3.458;2023-08-01T12:09:11;23.70;99.90
21834;DHT22;11079;51.092;3.458;2023-08-01T12:11:38;24.20;99.90
21834;DHT22;11079;51.092;3.458;2023-08-01T12:14:04;25.70;99.90
21834;DHT22;11079;51.092;3.458;2023-08-01T12:16:30;25.50;99.90
21834;DHT22;11079;51.092;3.458;2023-08-01T12:18:57;25.00;99.90
21834;DHT22;11079;51.092;3.458;2023-08-01T12:21:23;24.50;99.90
21834;DHT22;11079;51.092;3.458;2023-08-01T12:23:48;24.00;99.90
21834;DHT22;11079;51.092;3.458;2023-08-01T12:26:14;23.40;99.90
21834;DHT22;11079;51.092;3.458;2023-08-01T12:28:40;23.20;99.90
21834;DHT22;11079;51.092;3.458;2023-08-01T12:31:05;22.90;99.90
21834;DHT22;11079;51.092;3.458;2023-08-01T12:33:32;22.50;99.90
21834;DHT22;11079;51.092;3.458;2023-08-01T12:36:01;22.60;99.90
21834;DHT22;11079;51.092;3.458;2023-08-01T12:38:27;22.80;99.90
21834;DHT22;11079;51.092;3.458;2023-08-01T12:40:53;23.10;99.90
21834;DHT22;11079;51.092;3.458;2023-08-01T12:43:18;24.20;99.90
21834;DHT22;11079;51.092;3.458;2023-08-01T12:45:44;25.60;99.90
21834;DHT22;11079;51.092;3.458;2023-08-01T12:48:11;25.30;99.90
21834;DHT22;11079;51.092;3.458;2023-08-01T12:50:37;25.30;99.90
21834;DHT22;11079;51.092;3.458;2023-08-01T12:53:02;24.50;99.90
21834;DHT22;11079;51.092;3.458;2023-08-01T12:55:28;24.00;99.90
21834;DHT22;11079;51.092;3.458;2023-08-01T12:57:53;23.80;99.90
21834;DHT22;11079;51.092;3.458;2023-08-01T13:00:19;23.40;99.90
21834;DHT22;11079;51.092;3.458;2023-08-01T13:02:45;22.80;99.90
21834;DHT22;11079;51.092;3.458;2023-08-01T13:05:12;22.50;99.90
21834;DHT22;11079;51.092;3.458;2023-08-01T13:07:38;22.30;99.90
21834;DHT22;11079;51.092;3.458;2023-08-01T13:10:04;21.90;99.90
21834;DHT22;11079;51.092;3.458;2023-08-01T13:12:29;21.60;99.90
21834;DHT22;11079;51.092;3.458;2023-08-01T13:14:55;21.40;99.90
21834;DHT22;11079;51.092;3.458;2023-08-01T13:17:21;21.70;99.90
21834;DHT22;11079;51.092;3.458;2023-08-01T13:19:46;21.90;99.90
21834;DHT22;11079;51.092;3.458;2023-08-01T13:22:12;22.00;99.90
21834;DHT22;11079;51.092;3.458;2023-08-01T13:24:38;21.80;99.90
21834;DHT22;11079;51.092;3.458;2023-08-01T13:27:04;21.30;99.90
21834;DHT22;11079;51.092;3.458;2023-08-01T13:29:30;21.00;99.90
21834;DHT22;11079;51.092;3.458;2023-08-01T13:31:56;20.90;99.90
21834;DHT22;11079;51.092;3.458;2023-08-01T13:34:21;20.70;99.90
21834;DHT22;11079;51.092;3.458;2023-08-01T13:36:47;20.50;99.90
21834;DHT22;11079;51.092;3.458;2023-08-01T13:39:13;20.30;99.90
21834;DHT22;11079;51.092;3.458;2023-08-01T13:41:38;20.40;99.90
21834;DHT22;11079;51.092;3.458;2023-08-01T13:44:04;20.50;99.90
21834;DHT22;11079;51.092;3.458;2023-08-01T13:46:30;20.70;99.90
21834;DHT22;11079;51.092;3.458;2023-08-01T13:48:57;20.70;99.90
21834;DHT22;11079;51.092;3.458;2023-08-01T13:51:23;20.80;99.90
21834;DHT22;11079;51.092;3.458;2023-08-01T13:53:48;20.90;99.90
21834;DHT22;11079;51.092;3.458;2023-08-01T13:56:14;21.00;99.90
21834;DHT22;11079;51.092;3.458;2023-08-01T13:58:41;21.00;99.90
21834;DHT22;11079;51.092;3.458;2023-08-01T14:01:09;20.80;99.90
21834;DHT22;11079;51.092;3.458;2023-08-01T14:03:36;20.90;99.90
21834;DHT22;11079;51.092;3.458;2023-08-01T14:06:09;20.90;99.90
21834;DHT22;11079;51.092;3.458;2023-08-01T14:08:37;20.90;99.90
21834;DHT22;11079;51.092;3.458;2023-08-01T14:11:04;21.00;99.90
21834;DHT22;11079;51.092;3.458;2023-08-01T14:13:30;21.10;99.90
21834;DHT22;11079;51.092;3.458;2023-08-01T14:15:56;21.20;99.90
21834;DHT22;11079;51.092;3.458;2023-08-01T14:18:22;21.30;99.90
21834;DHT22;11079;51.092;3.458;2023-08-01T14:20:47;21.40;99.90
21834;DHT22;11079;51.092;3.458;2023-08-01T14:23:15;21.40;99.90
21834;DHT22;11079;51.092;3.458;2023-08-01T14:25:40;21.80;99.90
21834;DHT22;11079;51.092;3.458;2023-08-01T14:28:07;21.90;99.90
21834;DHT22;11079;51.092;3.458;2023-08-01T14:30:32;21.90;99.90
21834;DHT22;11079;51.092;3.458;2023-08-01T14:33:02;21.80;99.90
21834;DHT22;11079;51.092;3.458;2023-08-01T14:35:28;21.80;99.90
21834;DHT22;11079;51.092;3.458;2023-08-01T14:37:54;21.50;99.90
21834;DHT22;11079;51.092;3.458;2023-08-01T14:40:24;21.50;99.90
21834;DHT22;11079;51.092;3.458;2023-08-01T14:42:50;21.40;99.90
21834;DHT22;11079;51.092;3.458;2023-08-01T14:45:16;21.20;99.90
21834;DHT22;11079;51.092;3.458;2023-08-01T14:47:42;20.90;99.90
21834;DHT22;11079;51.092;3.458;2023-08-01T14:50:10;20.90;99.90
21834;DHT22;11079;51.092;3.458;2023-08-01T14:52:37;20.90;99.90
21834;DHT22;11079;51.092;3.458;2023-08-01T14:55:03;20.80;99.90
21834;DHT22;11079;51.092;3.458;2023-08-01T14:57:29;20.80;99.90
21834;DHT22;11079;51.092;3.458;2023-08-01T14:59:55;20.90;99.90
21834;DHT22;11079;51.092;3.458;2023-08-01T15:02:21;20.90;99.90
21834;DHT22;11079;51.092;3.458;2023-08-01T15:04:51;20.80;99.90
21834;DHT22;11079;51.092;3.458;2023-08-01T15:07:17;20.60;99.90
21834;DHT22;11079;51.092;3.458;2023-08-01T15:09:43;20.30;99.90
21834;DHT22;11079;51.092;3.458;2023-08-01T15:12:09;20.20;99.90
21834;DHT22;11079;51.092;3.458;2023-08-01T15:14:36;20.00;99.90
21834;DHT22;11079;51.092;3.458;2023-08-01T15:17:02;20.00;99.90
21834;DHT22;11079;51.092;3.458;2023-08-01T15:19:28;20.10;99.90
21834;DHT22;11079;51.092;3.458;2023-08-01T15:21:54;20.10;99.90
21834;DHT22;11079;51.092;3.458;2023-08-01T15:24:19;20.00;99.90
21834;DHT22;11079;51.092;3.458;2023-08-01T15:26:45;20.00;99.90
21834;DHT22;11079;51.092;3.458;2023-08-01T15:29:10;20.10;99.90
21834;DHT22;11079;51.092;3.458;2023-08-01T15:31:36;20.10;99.90
21834;DHT22;11079;51.092;3.458;2023-08-01T15:34:02;20.10;99.90